Copiague, New York
Current Conditions -  °F | °C
As of 6:53 AM on Monday 24 Nov 2014 (Local Time) from KFRG Reporting Station
Light Rain Light Rain  
Wind Chill: 62°   Ceiling: 500
Heat Index: 62°   Visibility: 3mi
Dew Point: 59°   Wind: 30mph
Humidity: 90%   Direction: 170°S
Pressure: 29.73"   Gusts: 45mph
Location:  40.69°N, 73.4°W
Report Text: KFRG 241153Z 17026G39KT 3SM -RA BR OVC005 17/15 A2973 RMK AO2 PK WND 17039/1150 SLP067 P0006 60040 70040 T01670150 10167 20128 56030
Loading
Personal Weather Stations






























Interactive Weather Map New forecast layout! Learn more

10-Day Weather Forecast

Advertisements
Track Severe Weather on mobile